createdAt,value
2023-04-30T05:02:06.660Z,1008.49
2023-04-30T05:03:06.588Z,1008.48
2023-04-30T05:04:06.550Z,1008.52
2023-04-30T05:05:06.507Z,1008.48
2023-04-30T05:06:06.509Z,1008.56
2023-04-30T05:07:06.468Z,1008.50
2023-04-30T05:08:06.455Z,1008.55
2023-04-30T05:09:06.443Z,1008.55
2023-04-30T05:10:06.440Z,1008.54
2023-04-30T05:11:06.446Z,1008.60
2023-04-30T05:12:06.420Z,1008.59
2023-04-30T05:13:11.419Z,1008.55
2023-04-30T05:14:06.407Z,1008.46
2023-04-30T05:15:06.381Z,1008.50
2023-04-30T05:16:06.419Z,1008.48
2023-04-30T05:17:06.356Z,1008.51
2023-04-30T05:18:06.388Z,1008.57
2023-04-30T05:19:06.326Z,1008.50
2023-04-30T05:20:06.337Z,1008.56
2023-04-30T05:21:06.314Z,1008.50
2023-04-30T05:22:06.324Z,1008.45
2023-04-30T05:23:06.292Z,1008.58
2023-04-30T05:24:11.293Z,1008.53
2023-04-30T05:25:06.271Z,1008.57
2023-04-30T05:26:06.267Z,1008.58
2023-04-30T05:27:06.271Z,1008.54
2023-04-30T05:28:06.230Z,1008.48
2023-04-30T05:29:06.218Z,1008.55
2023-04-30T05:30:06.233Z,1008.54
2023-04-30T05:31:06.196Z,1008.54
2023-04-30T05:32:06.271Z,1008.56
2023-04-30T05:33:06.197Z,1008.55
2023-04-30T05:34:06.177Z,1008.58
2023-04-30T05:35:11.215Z,1008.59
2023-04-30T05:36:06.138Z,1008.52
2023-04-30T05:37:06.147Z,1008.54
2023-04-30T05:38:06.115Z,1008.62
2023-04-30T05:39:06.109Z,1008.56
2023-04-30T05:40:06.095Z,1008.58
2023-04-30T05:41:06.083Z,1008.59
2023-04-30T05:42:06.087Z,1008.63
2023-04-30T05:43:06.083Z,1008.56
2023-04-30T05:44:06.054Z,1008.54
2023-04-30T05:45:06.040Z,1008.55
2023-04-30T05:46:11.096Z,1008.53
2023-04-30T05:47:06.031Z,1008.61
2023-04-30T05:48:06.050Z,1008.60
2023-04-30T05:49:05.994Z,1008.60
2023-04-30T05:50:06.004Z,1008.59
2023-04-30T05:51:05.978Z,1008.58
2023-04-30T05:52:06.008Z,1008.61
2023-04-30T05:53:05.951Z,1008.61
2023-04-30T05:54:05.961Z,1008.59
2023-04-30T05:55:05.934Z,1008.59
2023-04-30T05:56:05.933Z,1008.56
2023-04-30T05:57:10.936Z,1008.62
2023-04-30T05:58:05.906Z,1008.57
2023-04-30T05:59:05.906Z,1008.60
2023-04-30T06:00:05.880Z,1008.57
2023-04-30T06:01:05.853Z,1008.58
2023-04-30T06:02:05.880Z,1008.56
2023-04-30T06:03:05.882Z,1008.60
2023-04-30T06:04:05.879Z,1008.54
2023-04-30T06:05:05.897Z,1008.61
2023-04-30T06:06:05.828Z,1008.60
2023-04-30T06:07:06.781Z,1008.60
2023-04-30T06:08:10.820Z,1008.59
2023-04-30T06:09:05.765Z,1008.61
2023-04-30T06:10:05.766Z,1008.62
2023-04-30T06:11:05.745Z,1008.59
2023-04-30T06:12:05.753Z,1008.59
2023-04-30T06:13:05.739Z,1008.62
2023-04-30T06:14:05.712Z,1008.62
2023-04-30T06:15:05.711Z,1008.61
2023-04-30T06:16:05.740Z,1008.65
2023-04-30T06:17:05.686Z,1008.63
2023-04-30T06:18:05.721Z,1008.57
2023-04-30T06:19:10.684Z,1008.57
2023-04-30T06:20:05.646Z,1008.60
2023-04-30T06:21:05.646Z,1008.59
2023-04-30T06:22:05.659Z,1008.55
2023-04-30T06:23:05.612Z,1008.54
2023-04-30T06:24:05.607Z,1008.58
2023-04-30T06:25:05.592Z,1008.63
2023-04-30T06:26:05.603Z,1008.58
2023-04-30T06:27:05.576Z,1008.64
2023-04-30T06:28:05.552Z,1008.64
2023-04-30T06:29:05.537Z,1008.61
2023-04-30T06:30:10.547Z,1008.60
2023-04-30T06:31:05.526Z,1008.60
2023-04-30T06:32:08.263Z,1008.63
2023-04-30T06:33:05.576Z,1008.63
2023-04-30T06:34:05.506Z,1008.67
2023-04-30T06:35:05.468Z,1008.62
2023-04-30T06:36:05.471Z,1008.64
2023-04-30T06:37:05.465Z,1008.71
2023-04-30T06:38:05.463Z,1008.72
2023-04-30T06:39:05.437Z,1008.68
2023-04-30T06:40:05.436Z,1008.70
2023-04-30T06:41:10.424Z,1008.75
2023-04-30T06:42:05.409Z,1008.64
2023-04-30T06:43:05.388Z,1008.70
2023-04-30T06:44:05.374Z,1008.78
2023-04-30T06:45:05.367Z,1008.76
2023-04-30T06:46:05.425Z,1008.75
2023-04-30T06:47:05.355Z,1008.79
2023-04-30T06:48:05.373Z,1008.69
2023-04-30T06:49:05.320Z,1008.79
2023-04-30T06:50:05.303Z,1008.76
2023-04-30T06:51:05.297Z,1008.74
2023-04-30T06:52:10.321Z,1008.79
2023-04-30T06:53:05.286Z,1008.72
2023-04-30T06:54:05.305Z,1008.77
2023-04-30T06:55:05.274Z,1008.86
2023-04-30T06:56:05.248Z,1008.77
2023-04-30T06:57:05.231Z,1008.81
2023-04-30T06:58:05.235Z,1008.88
2023-04-30T06:59:05.334Z,1008.77
2023-04-30T07:00:05.202Z,1008.82
2023-04-30T07:01:05.291Z,1008.83
2023-04-30T07:02:05.178Z,1008.87
2023-04-30T07:03:10.310Z,1008.81
2023-04-30T07:04:05.148Z,1008.85
2023-04-30T07:05:05.227Z,1008.74
2023-04-30T07:06:05.144Z,1008.77
2023-04-30T07:07:05.129Z,1008.78
2023-04-30T07:08:05.109Z,1008.80
2023-04-30T07:09:05.122Z,1008.74
2023-04-30T07:10:05.113Z,1008.81
2023-04-30T07:11:05.082Z,1008.80
2023-04-30T07:12:05.066Z,1008.73
2023-04-30T07:13:05.050Z,1008.76
2023-04-30T07:14:10.059Z,1008.78
2023-04-30T07:15:05.032Z,1008.83
2023-04-30T07:16:05.021Z,1008.78
2023-04-30T07:17:05.000Z,1008.81
2023-04-30T07:18:05.051Z,1008.84
2023-04-30T07:19:04.974Z,1008.78
2023-04-30T07:20:05.011Z,1008.84
2023-04-30T07:21:05.017Z,1008.83
2023-04-30T07:22:04.949Z,1008.80
2023-04-30T07:23:04.949Z,1008.83
2023-04-30T07:24:04.932Z,1008.85
2023-04-30T07:25:09.996Z,1008.90
2023-04-30T07:26:04.896Z,1008.87
2023-04-30T07:27:04.894Z,1008.84
2023-04-30T07:28:04.873Z,1008.85
2023-04-30T07:29:04.878Z,1008.80
2023-04-30T07:30:04.856Z,1008.83
2023-04-30T07:31:04.888Z,1008.83
2023-04-30T07:32:04.857Z,1008.84
2023-04-30T07:33:04.914Z,1008.77
2023-04-30T07:34:04.806Z,1008.73
2023-04-30T07:35:04.805Z,1008.78
2023-04-30T07:36:09.935Z,1008.85
2023-04-30T07:37:04.787Z,1008.81
2023-04-30T07:38:04.861Z,1008.77
2023-04-30T07:39:04.744Z,1008.72
2023-04-30T07:40:04.732Z,1008.76
2023-04-30T07:41:04.751Z,1008.76
2023-04-30T07:42:04.708Z,1008.81
2023-04-30T07:43:04.786Z,1008.73
2023-04-30T07:44:04.681Z,1008.65
2023-04-30T07:45:04.678Z,1008.75
2023-04-30T07:46:04.728Z,1008.72
2023-04-30T07:47:09.719Z,1008.71
2023-04-30T07:48:04.690Z,1008.71
2023-04-30T07:49:04.640Z,1008.79
2023-04-30T07:50:04.623Z,1008.75
2023-04-30T07:51:04.616Z,1008.74
2023-04-30T07:52:04.608Z,1008.77
2023-04-30T07:53:04.626Z,1008.80
2023-04-30T07:54:04.602Z,1008.82
2023-04-30T07:55:04.587Z,1008.78
2023-04-30T07:56:04.563Z,1008.66
2023-04-30T07:57:04.561Z,1008.70
2023-04-30T07:58:09.632Z,1008.73
2023-04-30T07:59:04.527Z,1008.79
2023-04-30T08:00:04.522Z,1008.72
2023-04-30T08:01:04.515Z,1008.74
2023-04-30T08:02:04.504Z,1008.74
2023-04-30T08:03:04.643Z,1008.83
2023-04-30T08:04:04.602Z,1008.75
2023-04-30T08:05:04.467Z,1008.86
2023-04-30T08:06:04.516Z,1008.86
2023-04-30T08:07:04.494Z,1008.74
2023-04-30T08:08:04.438Z,1008.74
2023-04-30T08:09:09.426Z,1008.81
2023-04-30T08:10:04.404Z,1008.89
2023-04-30T08:11:04.410Z,1008.88
2023-04-30T08:12:04.398Z,1008.89
2023-04-30T08:13:04.391Z,1008.90
2023-04-30T08:14:04.372Z,1008.91
2023-04-30T08:15:04.334Z,1008.81
2023-04-30T08:16:04.404Z,1008.71
2023-04-30T08:17:04.475Z,1008.76
2023-04-30T08:18:04.419Z,1008.71
2023-04-30T08:19:04.315Z,1008.66
2023-04-30T08:20:09.305Z,1008.59
2023-04-30T08:21:04.289Z,1008.70
2023-04-30T08:22:04.268Z,1008.63
2023-04-30T08:23:04.253Z,1008.58
2023-04-30T08:24:04.247Z,1008.66
2023-04-30T08:25:04.292Z,1008.65
2023-04-30T08:26:04.217Z,1008.60
2023-04-30T08:27:04.212Z,1008.69
2023-04-30T08:28:04.198Z,1008.63
2023-04-30T08:29:04.267Z,1008.63
2023-04-30T08:30:04.192Z,1008.70
2023-04-30T08:31:09.179Z,1008.74
2023-04-30T08:32:04.192Z,1008.77
2023-04-30T08:33:04.234Z,1008.78
2023-04-30T08:34:04.145Z,1008.73
2023-04-30T08:35:04.131Z,1008.77
2023-04-30T08:36:04.108Z,1008.88
2023-04-30T08:37:04.094Z,1008.85
2023-04-30T08:38:04.117Z,1008.75
2023-04-30T08:39:04.081Z,1008.73
2023-04-30T08:40:04.079Z,1008.71
2023-04-30T08:41:04.043Z,1008.72
2023-04-30T08:42:09.096Z,1008.67
2023-04-30T08:43:04.031Z,1008.67
2023-04-30T08:44:04.774Z,1008.68
2023-04-30T08:45:04.256Z,1008.74
2023-04-30T08:46:04.064Z,1008.74
2023-04-30T08:47:03.982Z,1008.70
2023-04-30T08:48:04.005Z,1008.68
2023-04-30T08:49:03.973Z,1008.77
2023-04-30T08:50:03.973Z,1008.73
2023-04-30T08:51:03.955Z,1008.75
2023-04-30T08:52:03.930Z,1008.65
2023-04-30T08:53:08.953Z,1008.75
2023-04-30T08:54:03.934Z,1008.71
2023-04-30T08:55:03.888Z,1008.73
2023-04-30T08:56:03.877Z,1008.77
2023-04-30T08:57:03.890Z,1008.73
2023-04-30T08:58:03.855Z,1008.71
2023-04-30T08:59:03.854Z,1008.86
2023-04-30T09:00:03.831Z,1008.80
2023-04-30T09:01:03.903Z,1008.89
2023-04-30T09:02:03.986Z,1008.72
2023-04-30T09:03:03.983Z,1008.70
2023-04-30T09:04:08.897Z,1008.69
2023-04-30T09:05:03.816Z,1008.72
2023-04-30T09:06:03.794Z,1008.71
2023-04-30T09:07:04.823Z,1008.70
2023-04-30T09:08:04.551Z,1008.69
2023-04-30T09:09:04.270Z,1008.71
2023-04-30T09:10:03.744Z,1008.72
2023-04-30T09:11:03.706Z,1008.74
2023-04-30T09:12:03.701Z,1008.70
2023-04-30T09:13:03.685Z,1008.72
2023-04-30T09:14:03.671Z,1008.62
2023-04-30T09:15:08.745Z,1008.75
2023-04-30T09:16:03.696Z,1008.69
2023-04-30T09:17:03.655Z,1008.67
2023-04-30T09:18:03.703Z,1008.62
2023-04-30T09:19:03.647Z,1008.66
2023-04-30T09:20:03.593Z,1008.58
2023-04-30T09:21:03.607Z,1008.68
2023-04-30T09:22:03.574Z,1008.68
2023-04-30T09:23:03.569Z,1008.63
2023-04-30T09:24:03.600Z,1008.66
2023-04-30T09:25:03.540Z,1008.68
2023-04-30T09:26:08.549Z,1008.62
2023-04-30T09:27:03.534Z,1008.64
2023-04-30T09:28:03.546Z,1008.58
2023-04-30T09:29:03.547Z,1008.64
2023-04-30T09:30:03.492Z,1008.66
2023-04-30T09:31:03.540Z,1008.62
2023-04-30T09:32:03.732Z,1008.67
2023-04-30T09:33:03.542Z,1008.58
2023-04-30T09:34:03.450Z,1008.67
2023-04-30T09:35:03.431Z,1008.67
2023-04-30T09:36:03.418Z,1008.71
2023-04-30T09:37:08.439Z,1008.75
2023-04-30T09:38:03.405Z,1008.90
2023-04-30T09:39:03.418Z,1008.65
2023-04-30T09:40:03.408Z,1008.63
2023-04-30T09:41:03.358Z,1008.69
2023-04-30T09:42:03.347Z,1008.58
2023-04-30T09:43:03.362Z,1008.62
2023-04-30T09:44:03.346Z,1008.55
2023-04-30T09:45:03.323Z,1008.59
2023-04-30T09:46:03.333Z,1008.63
2023-04-30T09:47:03.422Z,1008.60
2023-04-30T09:48:16.423Z,1008.62
2023-04-30T09:49:04.313Z,1008.58
2023-04-30T09:50:03.277Z,1008.63
2023-04-30T09:51:03.253Z,1008.67
2023-04-30T09:52:03.242Z,1008.68
2023-04-30T09:53:03.263Z,1008.61
2023-04-30T09:54:03.236Z,1008.63
2023-04-30T09:55:03.221Z,1008.73
2023-04-30T09:56:03.223Z,1008.62
2023-04-30T09:57:03.206Z,1008.57
2023-04-30T09:58:03.188Z,1008.59
2023-04-30T09:59:08.228Z,1008.57
2023-04-30T10:00:03.156Z,1008.62
2023-04-30T10:01:03.187Z,1008.55
2023-04-30T10:02:03.139Z,1008.64
2023-04-30T10:03:03.146Z,1008.62
2023-04-30T10:04:03.212Z,1008.60
2023-04-30T10:05:03.098Z,1008.55
2023-04-30T10:06:03.110Z,1008.56
2023-04-30T10:07:03.073Z,1008.54
2023-04-30T10:08:03.093Z,1008.58
2023-04-30T10:09:03.068Z,1008.52
2023-04-30T10:10:08.057Z,1008.55
2023-04-30T10:11:03.045Z,1008.48
2023-04-30T10:12:03.035Z,1008.49
2023-04-30T10:13:03.049Z,1008.51
2023-04-30T10:14:03.002Z,1008.44
2023-04-30T10:15:03.010Z,1008.43
2023-04-30T10:16:02.976Z,1008.48
2023-04-30T10:17:03.061Z,1008.52
2023-04-30T10:18:03.051Z,1008.46
2023-04-30T10:19:02.996Z,1008.51
2023-04-30T10:20:02.965Z,1008.52
2023-04-30T10:21:07.954Z,1008.54
2023-04-30T10:22:02.916Z,1008.45
2023-04-30T10:23:02.901Z,1008.45
2023-04-30T10:24:02.947Z,1008.47
2023-04-30T10:25:02.869Z,1008.48
2023-04-30T10:26:02.855Z,1008.49
2023-04-30T10:27:02.841Z,1008.54
2023-04-30T10:28:04.898Z,1008.52
2023-04-30T10:29:02.836Z,1008.47
2023-04-30T10:30:02.818Z,1008.48
2023-04-30T10:31:02.798Z,1008.41
2023-04-30T10:32:07.897Z,1008.44
2023-04-30T10:33:02.915Z,1008.47
2023-04-30T10:34:02.771Z,1008.41
2023-04-30T10:35:02.785Z,1008.40
2023-04-30T10:36:02.771Z,1008.37
2023-04-30T10:37:02.770Z,1008.41
2023-04-30T10:38:02.779Z,1008.37
2023-04-30T10:39:02.736Z,1008.35
2023-04-30T10:40:02.780Z,1008.42
2023-04-30T10:41:02.734Z,1008.38
2023-04-30T10:42:02.682Z,1008.35
2023-04-30T10:43:07.684Z,1008.40
2023-04-30T10:44:02.687Z,1008.36
2023-04-30T10:45:02.690Z,1008.38
2023-04-30T10:46:02.658Z,1008.33
2023-04-30T10:47:02.663Z,1008.33
2023-04-30T10:48:02.641Z,1008.39
2023-04-30T10:49:02.626Z,1008.35
2023-04-30T10:50:02.607Z,1008.28
2023-04-30T10:51:02.578Z,1008.31
2023-04-30T10:52:02.577Z,1008.32
2023-04-30T10:53:02.571Z,1008.23
2023-04-30T10:54:07.584Z,1008.20
2023-04-30T10:55:02.544Z,1008.21
2023-04-30T10:56:02.542Z,1008.22
2023-04-30T10:57:02.552Z,1008.13
2023-04-30T10:58:02.495Z,1008.09
2023-04-30T10:59:02.586Z,1008.15
2023-04-30T11:00:02.503Z,1008.09
2023-04-30T11:01:02.543Z,1008.18
2023-04-30T11:02:02.496Z,1008.17
2023-04-30T11:03:02.461Z,1008.19
2023-04-30T11:04:02.460Z,1008.19
2023-04-30T11:05:07.730Z,1008.24
2023-04-30T11:06:02.437Z,1008.15
2023-04-30T11:07:02.435Z,1008.17
2023-04-30T11:08:02.408Z,1008.12
2023-04-30T11:09:02.426Z,1008.05
2023-04-30T11:10:02.391Z,1008.05
2023-04-30T11:11:02.350Z,1008.06
2023-04-30T11:12:02.361Z,1008.03
2023-04-30T11:13:02.319Z,1008.03
2023-04-30T11:14:02.323Z,1008.00
2023-04-30T11:15:02.317Z,1008.02
2023-04-30T11:16:07.380Z,1008.05
2023-04-30T11:17:02.297Z,1008.00
2023-04-30T11:18:02.300Z,1008.05
2023-04-30T11:19:02.252Z,1008.03
2023-04-30T11:20:02.297Z,1008.03
2023-04-30T11:21:02.228Z,1008.05
2023-04-30T11:22:02.238Z,1008.05
2023-04-30T11:23:02.210Z,1008.04
2023-04-30T11:24:02.261Z,1008.01
2023-04-30T11:25:02.195Z,1008.08
2023-04-30T11:26:02.178Z,1008.10
2023-04-30T11:27:07.206Z,1008.05
2023-04-30T11:28:02.183Z,1008.04
2023-04-30T11:29:02.175Z,1008.02
2023-04-30T11:30:02.164Z,1008.06
2023-04-30T11:31:02.246Z,1008.01
2023-04-30T11:32:02.270Z,1008.04
2023-04-30T11:33:02.216Z,1008.01
2023-04-30T11:34:02.092Z,1007.93
2023-04-30T11:35:02.131Z,1007.98
2023-04-30T11:36:02.121Z,1007.99
2023-04-30T11:37:02.051Z,1007.90
2023-04-30T11:38:07.080Z,1007.92
2023-04-30T11:39:02.032Z,1007.86
2023-04-30T11:40:02.073Z,1007.93
2023-04-30T11:41:02.045Z,1007.95
2023-04-30T11:42:01.997Z,1008.24
2023-04-30T11:43:01.980Z,1007.91
2023-04-30T11:44:01.984Z,1007.91
2023-04-30T11:45:01.988Z,1007.92
2023-04-30T11:46:02.031Z,1007.98
2023-04-30T11:47:02.057Z,1007.94
2023-04-30T11:48:02.002Z,1007.88
2023-04-30T11:49:07.014Z,1007.84
2023-04-30T11:50:01.924Z,1007.83
2023-04-30T11:51:01.908Z,1007.88
2023-04-30T11:52:01.887Z,1007.87
2023-04-30T11:53:01.910Z,1007.81
2023-04-30T11:54:01.866Z,1007.83
2023-04-30T11:55:01.847Z,1007.91
2023-04-30T11:56:01.954Z,1007.89
2023-04-30T11:57:01.840Z,1007.86
2023-04-30T11:58:01.824Z,1007.80
2023-04-30T11:59:01.817Z,1007.77
2023-04-30T12:00:06.815Z,1007.76
2023-04-30T12:01:01.810Z,1007.82
2023-04-30T12:02:01.822Z,1007.77
2023-04-30T12:03:02.027Z,1007.85
2023-04-30T12:04:01.834Z,1007.84
2023-04-30T12:05:01.771Z,1007.80
2023-04-30T12:06:01.803Z,1007.77
2023-04-30T12:07:01.715Z,1007.78
2023-04-30T12:08:01.733Z,1007.76
2023-04-30T12:09:01.739Z,1007.77
2023-04-30T12:10:01.692Z,1007.82
2023-04-30T12:11:06.832Z,1007.85
2023-04-30T12:12:01.660Z,1007.74
2023-04-30T12:13:01.718Z,1007.89
2023-04-30T12:14:01.646Z,1008.01
2023-04-30T12:15:01.656Z,1007.93
2023-04-30T12:16:01.669Z,1007.66
2023-04-30T12:17:01.849Z,1007.67
2023-04-30T12:18:01.629Z,1007.65
2023-04-30T12:19:01.586Z,1007.63
2023-04-30T12:20:01.615Z,1007.64
2023-04-30T12:21:01.592Z,1007.65
2023-04-30T12:22:06.588Z,1007.69
2023-04-30T12:23:01.562Z,1007.70
2023-04-30T12:24:03.319Z,1007.82
2023-04-30T12:25:01.534Z,1007.59
2023-04-30T12:26:01.548Z,1007.60
2023-04-30T12:27:01.500Z,1007.82
2023-04-30T12:28:01.491Z,1007.84
2023-04-30T12:29:01.466Z,1007.59
2023-04-30T12:30:01.475Z,1007.56
2023-04-30T12:31:01.456Z,1007.79
2023-04-30T12:32:01.473Z,1007.72
2023-04-30T12:33:06.488Z,1007.48
2023-04-30T12:34:01.421Z,1007.50
2023-04-30T12:35:01.413Z,1007.50
2023-04-30T12:36:01.452Z,1007.42
2023-04-30T12:37:01.425Z,1007.44
2023-04-30T12:38:01.390Z,1007.52
2023-04-30T12:39:01.365Z,1007.49
2023-04-30T12:40:01.336Z,1007.46
2023-04-30T12:41:02.054Z,1007.48
2023-04-30T12:42:01.342Z,1007.48
2023-04-30T12:43:01.357Z,1007.46
2023-04-30T12:44:06.331Z,1007.51
2023-04-30T12:45:01.346Z,1007.44
2023-04-30T12:46:01.410Z,1007.43
2023-04-30T12:47:01.254Z,1007.39
2023-04-30T12:48:01.259Z,1007.36
2023-04-30T12:49:01.283Z,1007.37
2023-04-30T12:50:01.381Z,1007.34
2023-04-30T12:51:01.228Z,1007.40
2023-04-30T12:52:01.207Z,1007.33
2023-04-30T12:53:01.206Z,1007.35
2023-04-30T12:54:01.224Z,1007.31
2023-04-30T12:55:01.171Z,1007.37
2023-04-30T12:56:01.469Z,1007.39
2023-04-30T12:57:06.163Z,1007.33
2023-04-30T12:58:01.150Z,1007.29
2023-04-30T12:59:01.151Z,1007.27
2023-04-30T13:00:01.123Z,1007.28
2023-04-30T13:01:01.163Z,1007.22
2023-04-30T13:02:01.130Z,1007.24
2023-04-30T13:03:01.148Z,1007.23
2023-04-30T13:04:01.271Z,1007.18
2023-04-30T13:05:01.085Z,1007.25
2023-04-30T13:06:01.082Z,1007.16
2023-04-30T13:07:01.050Z,1007.14
2023-04-30T13:08:06.045Z,1007.13
2023-04-30T13:09:01.018Z,1007.17
2023-04-30T13:10:01.030Z,1007.14
2023-04-30T13:11:01.024Z,1007.09
2023-04-30T13:12:00.991Z,1007.10
2023-04-30T13:13:01.032Z,1007.08
2023-04-30T13:14:00.977Z,1007.04
2023-04-30T13:15:01.009Z,1006.98
2023-04-30T13:16:01.036Z,1006.99
2023-04-30T13:17:00.923Z,1007.04
2023-04-30T13:18:00.930Z,1007.06
2023-04-30T13:19:05.943Z,1006.98
2023-04-30T13:20:00.883Z,1007.06
2023-04-30T13:21:00.912Z,1006.97
2023-04-30T13:22:00.874Z,1007.00
2023-04-30T13:23:00.846Z,1006.97
2023-04-30T13:24:00.840Z,1006.95
2023-04-30T13:25:00.828Z,1006.90
2023-04-30T13:26:00.839Z,1006.88
2023-04-30T13:27:00.833Z,1006.91
2023-04-30T13:28:00.808Z,1006.92
2023-04-30T13:29:00.782Z,1006.84
2023-04-30T13:30:05.879Z,1006.88
2023-04-30T13:31:00.847Z,1006.79
2023-04-30T13:32:00.758Z,1006.81
2023-04-30T13:33:00.918Z,1006.82
2023-04-30T13:34:00.746Z,1006.80
2023-04-30T13:35:00.730Z,1006.77
2023-04-30T13:36:00.713Z,1006.79
2023-04-30T13:37:00.741Z,1006.74
2023-04-30T13:38:00.688Z,1006.73
2023-04-30T13:39:00.708Z,1006.80
2023-04-30T13:40:00.657Z,1006.77
2023-04-30T13:41:05.665Z,1006.80
2023-04-30T13:42:00.655Z,1006.75
2023-04-30T13:43:00.639Z,1006.75
2023-04-30T13:44:00.635Z,1006.70
2023-04-30T13:45:00.622Z,1006.65
2023-04-30T13:46:00.720Z,1006.72
2023-04-30T13:47:00.620Z,1006.67
2023-04-30T13:48:00.617Z,1006.70
2023-04-30T13:49:00.573Z,1006.60
2023-04-30T13:50:00.566Z,1006.59
2023-04-30T13:51:00.539Z,1006.61
2023-04-30T13:52:05.605Z,1006.63
2023-04-30T13:53:00.507Z,1006.66
2023-04-30T13:54:00.509Z,1006.66
2023-04-30T13:55:00.500Z,1006.73
2023-04-30T13:56:00.504Z,1006.77
2023-04-30T13:57:00.506Z,1006.63
2023-04-30T13:58:00.480Z,1006.72
2023-04-30T13:59:00.445Z,1006.71
2023-04-30T14:00:00.557Z,1006.65
2023-04-30T14:01:00.486Z,1006.64
2023-04-30T14:02:00.455Z,1006.66
2023-04-30T14:03:07.950Z,1006.65
2023-04-30T14:04:00.467Z,1006.59
2023-04-30T14:05:05.763Z,1006.59
2023-04-30T14:06:01.426Z,1006.63
2023-04-30T14:07:00.372Z,1006.56
2023-04-30T14:08:00.350Z,1006.59
2023-04-30T14:09:00.365Z,1006.56
2023-04-30T14:10:00.372Z,1006.53
2023-04-30T14:11:00.313Z,1006.54
2023-04-30T14:12:00.307Z,1006.59
2023-04-30T14:13:00.338Z,1006.56
2023-04-30T14:14:05.298Z,1006.56
2023-04-30T14:15:00.262Z,1006.52
2023-04-30T14:16:00.297Z,1006.53
2023-04-30T14:17:00.368Z,1006.50
2023-04-30T14:18:00.396Z,1006.58
2023-04-30T14:19:00.255Z,1006.54
2023-04-30T14:20:00.228Z,1006.52
2023-04-30T14:21:00.197Z,1006.53
2023-04-30T14:22:00.210Z,1006.47
2023-04-30T14:23:02.082Z,1006.55
2023-04-30T14:24:00.217Z,1006.44
2023-04-30T14:25:05.249Z,1006.52
2023-04-30T14:26:00.182Z,1006.53
2023-04-30T14:27:00.162Z,1006.45
2023-04-30T14:28:00.139Z,1006.44
2023-04-30T14:29:00.141Z,1006.35
2023-04-30T14:30:00.166Z,1006.45
2023-04-30T14:31:00.116Z,1006.42
2023-04-30T14:32:00.196Z,1006.37
2023-04-30T14:33:00.181Z,1006.27
2023-04-30T14:34:00.089Z,1006.18
2023-04-30T14:35:00.054Z,1006.25
2023-04-30T14:36:05.050Z,1006.24
2023-04-30T14:37:00.096Z,1006.24
2023-04-30T14:38:00.016Z,1006.29
2023-04-30T14:39:00.030Z,1006.23
2023-04-30T14:40:00.079Z,1006.30
2023-04-30T14:40:59.965Z,1006.26
2023-04-30T14:41:59.994Z,1006.35
2023-04-30T14:43:00.084Z,1006.29
2023-04-30T14:43:59.931Z,1006.26
2023-04-30T14:44:59.920Z,1006.22
2023-04-30T14:46:00.055Z,1006.27
2023-04-30T14:47:04.936Z,1006.25
2023-04-30T14:48:00.046Z,1006.22
2023-04-30T14:48:59.876Z,1006.28
2023-04-30T14:49:59.895Z,1006.27
2023-04-30T14:50:59.856Z,1006.26
2023-04-30T14:51:59.892Z,1006.25
2023-04-30T14:52:59.847Z,1006.16
2023-04-30T14:53:59.817Z,1006.18
2023-04-30T14:54:59.822Z,1006.14
2023-04-30T14:55:59.822Z,1006.10
2023-04-30T14:56:59.808Z,1006.05
2023-04-30T14:58:04.866Z,1006.10
2023-04-30T14:58:59.772Z,1006.14
2023-04-30T14:59:59.754Z,1006.11
2023-04-30T15:00:59.843Z,1006.03
2023-04-30T15:01:59.836Z,1005.99
2023-04-30T15:02:59.793Z,1006.02
2023-04-30T15:03:59.731Z,1006.01
2023-04-30T15:04:59.711Z,1006.05
2023-04-30T15:05:59.755Z,1005.97
2023-04-30T15:06:59.738Z,1005.98
2023-04-30T15:07:59.688Z,1005.88
2023-04-30T15:09:04.686Z,1005.98
2023-04-30T15:09:59.680Z,1005.96
2023-04-30T15:10:59.638Z,1005.91
2023-04-30T15:11:59.658Z,1005.96
2023-04-30T15:12:59.625Z,1005.98
2023-04-30T15:13:59.598Z,1005.96
2023-04-30T15:14:59.653Z,1005.92
2023-04-30T15:15:59.606Z,1005.93
2023-04-30T15:16:59.587Z,1005.94
2023-04-30T15:17:59.596Z,1005.95
2023-04-30T15:18:59.570Z,1005.99
2023-04-30T15:20:04.727Z,1005.98
2023-04-30T15:20:59.517Z,1006.06
2023-04-30T15:21:59.521Z,1005.98
2023-04-30T15:22:59.529Z,1006.02
2023-04-30T15:23:59.488Z,1005.99
2023-04-30T15:24:59.495Z,1006.02
2023-04-30T15:25:59.455Z,1006.08
2023-04-30T15:26:59.448Z,1006.03
2023-04-30T15:27:59.450Z,1006.06
2023-04-30T15:28:59.432Z,1006.07
2023-04-30T15:29:59.441Z,1006.13
2023-04-30T15:31:04.512Z,1006.05
2023-04-30T15:31:59.881Z,1006.07
2023-04-30T15:32:59.460Z,1005.99
2023-04-30T15:33:59.385Z,1006.12
2023-04-30T15:34:59.360Z,1005.96
2023-04-30T15:35:59.377Z,1005.98
2023-04-30T15:36:59.328Z,1006.03
2023-04-30T15:37:59.370Z,1006.00
2023-04-30T15:38:59.333Z,1006.01
2023-04-30T15:39:59.369Z,1005.99
2023-04-30T15:40:59.307Z,1006.01
2023-04-30T15:42:04.332Z,1006.02
2023-04-30T15:42:59.276Z,1005.95
2023-04-30T15:43:59.253Z,1005.95
2023-04-30T15:44:59.242Z,1005.88
2023-04-30T15:45:59.240Z,1005.85
2023-04-30T15:46:59.346Z,1005.87
2023-04-30T15:47:59.289Z,1005.88
2023-04-30T15:48:59.194Z,1005.80
2023-04-30T15:49:59.254Z,1005.75
2023-04-30T15:50:59.176Z,1005.78
2023-04-30T15:51:59.207Z,1005.69
2023-04-30T15:53:04.209Z,1005.66
2023-04-30T15:53:59.135Z,1005.68
2023-04-30T15:54:59.137Z,1005.66
2023-04-30T15:55:59.140Z,1005.66
2023-04-30T15:56:59.132Z,1005.59
2023-04-30T15:57:59.138Z,1005.60
2023-04-30T15:58:59.112Z,1005.59
2023-04-30T15:59:59.151Z,1005.56
2023-04-30T16:00:59.128Z,1005.53
2023-04-30T16:01:59.133Z,1005.61
2023-04-30T16:02:59.203Z,1005.54
2023-04-30T16:04:04.270Z,1005.54
2023-04-30T16:04:59.015Z,1005.51
2023-04-30T16:05:59.048Z,1005.51
2023-04-30T16:06:59.017Z,1005.56
2023-04-30T16:07:59.001Z,1005.56
2023-04-30T16:08:59.013Z,1005.56
2023-04-30T16:09:59.051Z,1005.55
2023-04-30T16:10:58.999Z,1005.51
2023-04-30T16:11:58.955Z,1005.55
2023-04-30T16:12:58.937Z,1005.49
2023-04-30T16:13:58.938Z,1005.52
2023-04-30T16:15:03.968Z,1005.48
2023-04-30T16:15:58.965Z,1005.51
2023-04-30T16:16:59.055Z,1005.50
2023-04-30T16:17:59.023Z,1005.43
2023-04-30T16:18:59.009Z,1005.47
2023-04-30T16:19:58.954Z,1005.53
2023-04-30T16:20:58.843Z,1005.48
2023-04-30T16:21:58.831Z,1005.41
2023-04-30T16:22:58.866Z,1005.46
2023-04-30T16:23:59.759Z,1005.43
2023-04-30T16:24:58.812Z,1005.42
2023-04-30T16:26:03.805Z,1005.37
2023-04-30T16:26:58.931Z,1005.37
2023-04-30T16:27:58.837Z,1005.35
2023-04-30T16:28:58.755Z,1005.41
2023-04-30T16:29:58.895Z,1005.35
2023-04-30T16:30:58.759Z,1005.37
2023-04-30T16:31:58.786Z,1005.37
2023-04-30T16:32:58.778Z,1005.41
2023-04-30T16:33:58.704Z,1005.35
2023-04-30T16:34:58.692Z,1005.35
2023-04-30T16:35:58.666Z,1005.41
2023-04-30T16:37:03.713Z,1005.37
2023-04-30T16:37:58.717Z,1005.35
2023-04-30T16:38:58.679Z,1005.30
2023-04-30T16:39:58.654Z,1005.29
2023-04-30T16:40:58.680Z,1005.29
2023-04-30T16:41:58.616Z,1005.29
2023-04-30T16:42:58.670Z,1005.25
2023-04-30T16:43:58.580Z,1005.22
2023-04-30T16:44:58.609Z,1005.24
2023-04-30T16:45:58.601Z,1005.20
2023-04-30T16:46:58.544Z,1005.20
2023-04-30T16:48:03.616Z,1005.13
2023-04-30T16:48:58.517Z,1005.16
2023-04-30T16:49:58.721Z,1005.13
2023-04-30T16:50:58.505Z,1005.17
2023-04-30T16:51:58.554Z,1005.13
2023-04-30T16:52:58.485Z,1005.13
2023-04-30T16:53:58.495Z,1005.13
2023-04-30T16:54:58.473Z,1005.18
2023-04-30T16:55:58.448Z,1005.08
2023-04-30T16:56:58.468Z,1005.10
2023-04-30T16:57:58.429Z,1005.10
2023-04-30T16:59:03.468Z,1005.05
2023-04-30T16:59:58.517Z,1005.10
2023-04-30T17:00:58.450Z,1005.09
2023-04-30T17:01:58.365Z,1005.06
2023-04-30T17:02:58.410Z,1005.06
2023-04-30T17:03:58.669Z,1005.10
2023-04-30T17:04:58.338Z,1005.08
2023-04-30T17:05:58.336Z,1005.04
2023-04-30T17:06:58.429Z,1004.98